sensor_id;sensor_type;location;lat;lon;timestamp;P1;P2;P0
62981;PMS5003;49075;53.988;27.678;2022-09-30T00:03:40;24.8;22.8;15.2
62981;PMS5003;49075;53.988;27.678;2022-09-30T00:09:18;25.2;24.6;16.4
62981;PMS5003;49075;53.988;27.678;2022-09-30T00:13:40;26.8;25.5;17.5
62981;PMS5003;49075;53.988;27.678;2022-09-30T00:18:52;27;25;16
62981;PMS5003;49075;53.988;27.678;2022-09-30T00:23:50;27.6;25.6;17.2
62981;PMS5003;49075;53.988;27.678;2022-09-30T00:28:39;23.8;23;16.4
62981;PMS5003;49075;53.988;27.678;2022-09-30T00:34:18;23.8;23;16.6
62981;PMS5003;49075;53.988;27.678;2022-09-30T00:38:50;25.4;25;17.4
62981;PMS5003;49075;53.988;27.678;2022-09-30T00:45:25;25.8;25.4;16.8
62981;PMS5003;49075;53.988;27.678;2022-09-30T00:49:10;36.2;32.2;19.8
62981;PMS5003;49075;53.988;27.678;2022-09-30T00:53:56;30.4;29;18.6
62981;PMS5003;49075;53.988;27.678;2022-09-30T00:59:22;32.6;30.4;20
62981;PMS5003;49075;53.988;27.678;2022-09-30T01:03:51;28.4;27;18.6
62981;PMS5003;49075;53.988;27.678;2022-09-30T01:09:20;28.4;27.4;18.2
62981;PMS5003;49075;53.988;27.678;2022-09-30T01:14:07;23.3;22.3;15.5
62981;PMS5003;49075;53.988;27.678;2022-09-30T01:19:24;27.6;25.8;17.4
62981;PMS5003;49075;53.988;27.678;2022-09-30T01:28:59;20.2;19.8;13.4
62981;PMS5003;49075;53.988;27.678;2022-09-30T01:34:57;24.4;23.6;16
62981;PMS5003;49075;53.988;27.678;2022-09-30T01:38:50;20.8;19.8;13.4
62981;PMS5003;49075;53.988;27.678;2022-09-30T01:44:27;23.2;21.8;14.8
62981;PMS5003;49075;53.988;27.678;2022-09-30T01:48:49;21.6;19;13.6
62981;PMS5003;49075;53.988;27.678;2022-09-30T01:53:53;18.8;18;13.8
62981;PMS5003;49075;53.988;27.678;2022-09-30T01:58:54;18;16.6;12.4
62981;PMS5003;49075;53.988;27.678;2022-09-30T02:03:40;20.8;20.6;14.4
62981;PMS5003;49075;53.988;27.678;2022-09-30T02:09:25;23.2;21.8;15.2
62981;PMS5003;49075;53.988;27.678;2022-09-30T02:13:58;20.4;19;13.2
62981;PMS5003;49075;53.988;27.678;2022-09-30T02:18:57;19.8;18.8;13.5
62981;PMS5003;49075;53.988;27.678;2022-09-30T02:24:25;22.4;21.6;15.2
62981;PMS5003;49075;53.988;27.678;2022-09-30T02:29:26;19;18.4;13.6
62981;PMS5003;49075;53.988;27.678;2022-09-30T02:34:38;17.8;17.2;13.4
62981;PMS5003;49075;53.988;27.678;2022-09-30T02:38:58;19.6;19.4;13.2
62981;PMS5003;49075;53.988;27.678;2022-09-30T02:43:42;20.2;19;13.6
62981;PMS5003;49075;53.988;27.678;2022-09-30T02:48:54;26.8;26.2;17.4
62981;PMS5003;49075;53.988;27.678;2022-09-30T02:59:24;18.6;17.2;11.8
62981;PMS5003;49075;53.988;27.678;2022-09-30T03:04:24;19;19;12.2
62981;PMS5003;49075;53.988;27.678;2022-09-30T03:09:23;20.4;20;14.2
62981;PMS5003;49075;53.988;27.678;2022-09-30T03:14:39;16.2;15.4;11.4
62981;PMS5003;49075;53.988;27.678;2022-09-30T03:19:33;21.3;20.3;15
62981;PMS5003;49075;53.988;27.678;2022-09-30T03:23:42;18.8;18.6;14.6
62981;PMS5003;49075;53.988;27.678;2022-09-30T03:29:02;19.2;18.8;13.8
62981;PMS5003;49075;53.988;27.678;2022-09-30T03:34:03;20;19.6;15.8
62981;PMS5003;49075;53.988;27.678;2022-09-30T03:38:55;15.6;14.6;12
62981;PMS5003;49075;53.988;27.678;2022-09-30T03:43:56;15.4;15.4;12.6
62981;PMS5003;49075;53.988;27.678;2022-09-30T03:49:27;19.6;19.6;14.8
62981;PMS5003;49075;53.988;27.678;2022-09-30T03:53:52;18.6;17.8;13.4
62981;PMS5003;49075;53.988;27.678;2022-09-30T03:58:52;16.6;16.6;13
62981;PMS5003;49075;53.988;27.678;2022-09-30T04:03:52;20;18.8;15.2
62981;PMS5003;49075;53.988;27.678;2022-09-30T04:08:38;14.2;13.6;10.4
62981;PMS5003;49075;53.988;27.678;2022-09-30T04:13:38;18.4;18.2;12.2
62981;PMS5003;49075;53.988;27.678;2022-09-30T04:18:44;16.5;16;11.8
62981;PMS5003;49075;53.988;27.678;2022-09-30T04:24:26;19.2;19;14.6
62981;PMS5003;49075;53.988;27.678;2022-09-30T04:29:26;20.2;19.2;13.4
62981;PMS5003;49075;53.988;27.678;2022-09-30T04:34:24;18.6;18.6;13.2
62981;PMS5003;49075;53.988;27.678;2022-09-30T04:39:24;17.8;17.4;13
62981;PMS5003;49075;53.988;27.678;2022-09-30T04:44:26;22.2;20.4;14.8
62981;PMS5003;49075;53.988;27.678;2022-09-30T04:49:04;20.6;20.4;14
62981;PMS5003;49075;53.988;27.678;2022-09-30T04:54:24;23.2;22.2;16.2
62981;PMS5003;49075;53.988;27.678;2022-09-30T04:58:51;22.6;21.6;14.8
62981;PMS5003;49075;53.988;27.678;2022-09-30T05:03:44;21.8;21.2;16
62981;PMS5003;49075;53.988;27.678;2022-09-30T05:09:24;30.8;28.2;21.2
62981;PMS5003;49075;53.988;27.678;2022-09-30T05:13:39;31;29.6;20.6
62981;PMS5003;49075;53.988;27.678;2022-09-30T05:19:24;29.5;28.5;18.5
62981;PMS5003;49075;53.988;27.678;2022-09-30T05:23:52;30;29.6;20
62981;PMS5003;49075;53.988;27.678;2022-09-30T05:29:16;27;26.4;18.6
62981;PMS5003;49075;53.988;27.678;2022-09-30T05:33:48;26.6;25.6;18
62981;PMS5003;49075;53.988;27.678;2022-09-30T05:39:26;26;25.6;19
62981;PMS5003;49075;53.988;27.678;2022-09-30T05:43:52;24.2;24;16.8
62981;PMS5003;49075;53.988;27.678;2022-09-30T05:48:58;27;26.6;18
62981;PMS5003;49075;53.988;27.678;2022-09-30T05:54:26;25.8;25;19.2
62981;PMS5003;49075;53.988;27.678;2022-09-30T05:59:24;23.4;22.8;16.4
62981;PMS5003;49075;53.988;27.678;2022-09-30T06:03:38;27.6;27.4;19.4
62981;PMS5003;49075;53.988;27.678;2022-09-30T06:08:50;32.4;31.2;21.4
62981;PMS5003;49075;53.988;27.678;2022-09-30T06:13:48;33.4;31;21.6
62981;PMS5003;49075;53.988;27.678;2022-09-30T06:18:48;32.2;31;21.4
62981;PMS5003;49075;53.988;27.678;2022-09-30T06:24:02;32;30.3;20.5
62981;PMS5003;49075;53.988;27.678;2022-09-30T06:28:52;30.8;29.4;21.6
62981;PMS5003;49075;53.988;27.678;2022-09-30T06:34:22;32.6;30.2;20.8
62981;PMS5003;49075;53.988;27.678;2022-09-30T06:38:42;28.4;27.4;17.6
62981;PMS5003;49075;53.988;27.678;2022-09-30T06:43:58;27.2;25.8;18.8
62981;PMS5003;49075;53.988;27.678;2022-09-30T06:48:38;28.2;27.4;18.8
62981;PMS5003;49075;53.988;27.678;2022-09-30T06:54:22;24.4;23.6;16.8
62981;PMS5003;49075;53.988;27.678;2022-09-30T06:58:38;29.8;28.6;19.8
62981;PMS5003;49075;53.988;27.678;2022-09-30T07:04:24;34.6;31.8;21.2
62981;PMS5003;49075;53.988;27.678;2022-09-30T07:08:48;33.2;30.4;20.8
62981;PMS5003;49075;53.988;27.678;2022-09-30T07:14:24;33.8;31;19.8
62981;PMS5003;49075;53.988;27.678;2022-09-30T07:19:24;32.4;30;19.4
62981;PMS5003;49075;53.988;27.678;2022-09-30T07:24:24;28.5;27.3;17.8
62981;PMS5003;49075;53.988;27.678;2022-09-30T07:28:38;34;31.2;20.2
62981;PMS5003;49075;53.988;27.678;2022-09-30T07:33:43;33.8;30.4;20
62981;PMS5003;49075;53.988;27.678;2022-09-30T07:38:45;36.2;32.4;22
62981;PMS5003;49075;53.988;27.678;2022-09-30T07:43:39;32.4;29.4;20.2
62981;PMS5003;49075;53.988;27.678;2022-09-30T07:49:24;31.6;29.4;20
62981;PMS5003;49075;53.988;27.678;2022-09-30T07:53:52;32.2;29.2;20.6
62981;PMS5003;49075;53.988;27.678;2022-09-30T07:58:51;28.4;27.6;19.2
62981;PMS5003;49075;53.988;27.678;2022-09-30T08:04:25;28;26.6;17.6
62981;PMS5003;49075;53.988;27.678;2022-09-30T08:09:07;28;25.6;17.6
62981;PMS5003;49075;53.988;27.678;2022-09-30T08:14:25;26.6;26.4;19.2
62981;PMS5003;49075;53.988;27.678;2022-09-30T08:18:42;24.8;23.4;15.8
62981;PMS5003;49075;53.988;27.678;2022-09-30T08:23:42;30.3;28.5;19.3
62981;PMS5003;49075;53.988;27.678;2022-09-30T08:28:56;25.6;24;17.4
62981;PMS5003;49075;53.988;27.678;2022-09-30T08:34:22;26.4;24.8;17.8
62981;PMS5003;49075;53.988;27.678;2022-09-30T08:38:53;26.6;25.8;17.6
62981;PMS5003;49075;53.988;27.678;2022-09-30T08:43:52;27.4;26.6;17.8
62981;PMS5003;49075;53.988;27.678;2022-09-30T08:48:47;24.4;24.2;17.2
62981;PMS5003;49075;53.988;27.678;2022-09-30T08:53:48;26.4;25.4;18.8
62981;PMS5003;49075;53.988;27.678;2022-09-30T08:58:58;30.6;29;20
62981;PMS5003;49075;53.988;27.678;2022-09-30T09:04:20;29.4;27.8;19
62981;PMS5003;49075;53.988;27.678;2022-09-30T09:09:10;30.6;29.2;21
62981;PMS5003;49075;53.988;27.678;2022-09-30T09:13:57;28.6;27.8;20
62981;PMS5003;49075;53.988;27.678;2022-09-30T09:19:15;27.4;26.2;18.6
62981;PMS5003;49075;53.988;27.678;2022-09-30T09:23:52;28.8;27;19.5
62981;PMS5003;49075;53.988;27.678;2022-09-30T09:28:55;29.4;28.4;20.4
62981;PMS5003;49075;53.988;27.678;2022-09-30T09:33:50;29.6;28.2;20.4
62981;PMS5003;49075;53.988;27.678;2022-09-30T09:39:59;26.8;25.2;17.4
62981;PMS5003;49075;53.988;27.678;2022-09-30T09:44:28;26.2;24.2;16.4
62981;PMS5003;49075;53.988;27.678;2022-09-30T09:48:38;28.2;25.8;18.4
62981;PMS5003;49075;53.988;27.678;2022-09-30T09:53:44;32.4;29.2;20.6
62981;PMS5003;49075;53.988;27.678;2022-09-30T09:59:02;30.4;29;21
62981;PMS5003;49075;53.988;27.678;2022-09-30T10:04:24;27.2;25.6;18.2
62981;PMS5003;49075;53.988;27.678;2022-09-30T10:08:58;29.4;28.6;20.8
62981;PMS5003;49075;53.988;27.678;2022-09-30T10:13:55;29.6;27.8;19.8
62981;PMS5003;49075;53.988;27.678;2022-09-30T10:18:44;27.8;27;20
62981;PMS5003;49075;53.988;27.678;2022-09-30T10:24:17;28.8;27.8;20
62981;PMS5003;49075;53.988;27.678;2022-09-30T10:29:02;23.6;23;17.8
62981;PMS5003;49075;53.988;27.678;2022-09-30T10:34:24;27.2;25.8;18.6
62981;PMS5003;49075;53.988;27.678;2022-09-30T10:38:57;24.8;24.4;18
62981;PMS5003;49075;53.988;27.678;2022-09-30T10:44:24;26.6;25.8;18.8
62981;PMS5003;49075;53.988;27.678;2022-09-30T10:49:26;28.2;27.4;19.4
62981;PMS5003;49075;53.988;27.678;2022-09-30T10:53:44;27.6;26.6;20.2
62981;PMS5003;49075;53.988;27.678;2022-09-30T10:59:13;26;25.2;19.6
62981;PMS5003;49075;53.988;27.678;2022-09-30T11:03:56;24.2;23.6;18.2
62981;PMS5003;49075;53.988;27.678;2022-09-30T11:09:37;24.2;23.2;18
62981;PMS5003;49075;53.988;27.678;2022-09-30T11:14:15;24.6;24.2;18.4
62981;PMS5003;49075;53.988;27.678;2022-09-30T11:18:43;27;25.6;18.4
62981;PMS5003;49075;53.988;27.678;2022-09-30T11:23:53;25.6;25;19.2
62981;PMS5003;49075;53.988;27.678;2022-09-30T11:29:04;22.5;22;17
62981;PMS5003;49075;53.988;27.678;2022-09-30T11:34:31;27.6;25.8;17.4
62981;PMS5003;49075;53.988;27.678;2022-09-30T11:38:51;24;23.8;18.4
62981;PMS5003;49075;53.988;27.678;2022-09-30T11:44:03;22.4;21.8;16.4
62981;PMS5003;49075;53.988;27.678;2022-09-30T11:48:57;31.4;30;21.6
62981;PMS5003;49075;53.988;27.678;2022-09-30T11:59:29;23.4;22.8;16.6
62981;PMS5003;49075;53.988;27.678;2022-09-30T12:03:53;19.8;19.2;14.4
62981;PMS5003;49075;53.988;27.678;2022-09-30T12:08:52;26;24;17.8
62981;PMS5003;49075;53.988;27.678;2022-09-30T12:13:52;26.4;25.2;18.2
62981;PMS5003;49075;53.988;27.678;2022-09-30T12:18:55;24.8;24;18
62981;PMS5003;49075;53.988;27.678;2022-09-30T12:23:53;24;23;16.2
62981;PMS5003;49075;53.988;27.678;2022-09-30T12:28:48;22.3;21.8;15
62981;PMS5003;49075;53.988;27.678;2022-09-30T12:34:35;27.6;25.8;18.6
62981;PMS5003;49075;53.988;27.678;2022-09-30T12:39:24;32.4;29.8;21
62981;PMS5003;49075;53.988;27.678;2022-09-30T12:43:45;29.6;28.6;19.6
62981;PMS5003;49075;53.988;27.678;2022-09-30T12:48:47;29.8;28.6;19.8
62981;PMS5003;49075;53.988;27.678;2022-09-30T12:53:38;26.4;25.4;19
62981;PMS5003;49075;53.988;27.678;2022-09-30T12:58:50;28.8;27;19.2
62981;PMS5003;49075;53.988;27.678;2022-09-30T13:04:29;31.8;30.2;20.6
62981;PMS5003;49075;53.988;27.678;2022-09-30T13:08:41;22;21.4;15.8
62981;PMS5003;49075;53.988;27.678;2022-09-30T13:13:56;23.2;22.6;17
62981;PMS5003;49075;53.988;27.678;2022-09-30T13:19:30;26.8;24.4;18
62981;PMS5003;49075;53.988;27.678;2022-09-30T13:24:43;29.8;28.8;20
62981;PMS5003;49075;53.988;27.678;2022-09-30T13:28:44;28.3;26.5;19.3
62981;PMS5003;49075;53.988;27.678;2022-09-30T13:34:11;24.4;23.2;16.2
62981;PMS5003;49075;53.988;27.678;2022-09-30T13:39:27;25.8;24.4;17.6
62981;PMS5003;49075;53.988;27.678;2022-09-30T13:43:55;27.6;26.2;18
62981;PMS5003;49075;53.988;27.678;2022-09-30T13:49:25;24;24;16.4
62981;PMS5003;49075;53.988;27.678;2022-09-30T13:54:10;26;25;17.4
62981;PMS5003;49075;53.988;27.678;2022-09-30T13:59:31;26;25;16.8
62981;PMS5003;49075;53.988;27.678;2022-09-30T14:10:02;26;25.8;17.8
62981;PMS5003;49075;53.988;27.678;2022-09-30T14:13:48;23.8;23.2;17
62981;PMS5003;49075;53.988;27.678;2022-09-30T14:19:50;25.4;24.2;18.2
62981;PMS5003;49075;53.988;27.678;2022-09-30T14:24:24;24.4;23.2;17
62981;PMS5003;49075;53.988;27.678;2022-09-30T14:34:24;23.6;22.8;17
62981;PMS5003;49075;53.988;27.678;2022-09-30T14:39:26;23;23;15.4
62981;PMS5003;49075;53.988;27.678;2022-09-30T14:44:28;25;24.2;17.6
62981;PMS5003;49075;53.988;27.678;2022-09-30T14:48:53;25;23.2;16.4
62981;PMS5003;49075;53.988;27.678;2022-09-30T14:54:27;28;27.4;19.4
62981;PMS5003;49075;53.988;27.678;2022-09-30T14:59:16;22.6;22;16.2
62981;PMS5003;49075;53.988;27.678;2022-09-30T15:04:23;26;25.5;18.3
62981;PMS5003;49075;53.988;27.678;2022-09-30T15:09:32;26.4;24.8;17.8
62981;PMS5003;49075;53.988;27.678;2022-09-30T15:13:38;30;28;19.2
62981;PMS5003;49075;53.988;27.678;2022-09-30T15:19:33;29;27.8;19.2
62981;PMS5003;49075;53.988;27.678;2022-09-30T15:23:54;27.8;27.2;18.4
62981;PMS5003;49075;53.988;27.678;2022-09-30T15:28:51;28;26;19.6
62981;PMS5003;49075;53.988;27.678;2022-09-30T15:34:26;26;24.5;16.8
62981;PMS5003;49075;53.988;27.678;2022-09-30T15:39:29;24.8;23.6;17
62981;PMS5003;49075;53.988;27.678;2022-09-30T15:44:36;29;27.5;18.8
62981;PMS5003;49075;53.988;27.678;2022-09-30T15:49:09;25.4;24.8;17.2
62981;PMS5003;49075;53.988;27.678;2022-09-30T15:53:47;24.8;24;17.2
62981;PMS5003;49075;53.988;27.678;2022-09-30T16:00:01;22;21.8;15.8
62981;PMS5003;49075;53.988;27.678;2022-09-30T16:04:09;26;25;17.8
62981;PMS5003;49075;53.988;27.678;2022-09-30T16:08:52;28.4;27.2;19.8
62981;PMS5003;49075;53.988;27.678;2022-09-30T16:13:51;30.2;29;18.8
62981;PMS5003;49075;53.988;27.678;2022-09-30T16:19:29;27.6;26.2;19
62981;PMS5003;49075;53.988;27.678;2022-09-30T16:28:53;29.2;28.4;20.2
62981;PMS5003;49075;53.988;27.678;2022-09-30T16:33:49;31;31;22
62981;PMS5003;49075;53.988;27.678;2022-09-30T16:39:07;31;29.4;20.4
62981;PMS5003;49075;53.988;27.678;2022-09-30T16:43:39;23.8;22.4;17
62981;PMS5003;49075;53.988;27.678;2022-09-30T16:48:47;28.6;27.8;19.6
62981;PMS5003;49075;53.988;27.678;2022-09-30T16:54:29;25.8;25.8;18.2
62981;PMS5003;49075;53.988;27.678;2022-09-30T16:59:29;28.4;27.2;19.4
62981;PMS5003;49075;53.988;27.678;2022-09-30T17:04:27;29;28.2;20.2
62981;PMS5003;49075;53.988;27.678;2022-09-30T17:08:51;34.6;32.4;23.2
62981;PMS5003;49075;53.988;27.678;2022-09-30T17:13:51;32;30.6;20.6
62981;PMS5003;49075;53.988;27.678;2022-09-30T17:18:51;32;30.2;22
62981;PMS5003;49075;53.988;27.678;2022-09-30T17:24:07;39.8;36;23.6
62981;PMS5003;49075;53.988;27.678;2022-09-30T17:29:08;31;28.6;19.8
62981;PMS5003;49075;53.988;27.678;2022-09-30T17:34:29;36.8;34.3;23.5
62981;PMS5003;49075;53.988;27.678;2022-09-30T17:38:39;37.6;33.8;23.8
62981;PMS5003;49075;53.988;27.678;2022-09-30T17:43:59;49.2;41.4;28
62981;PMS5003;49075;53.988;27.678;2022-09-30T17:48:59;53.6;44.6;29.8
62981;PMS5003;49075;53.988;27.678;2022-09-30T17:53:47;42.5;36;23.5
62981;PMS5003;49075;53.988;27.678;2022-09-30T17:59:08;39;35;24
62981;PMS5003;49075;53.988;27.678;2022-09-30T18:03:59;49.6;41.4;27.2
62981;PMS5003;49075;53.988;27.678;2022-09-30T18:08:59;42.2;37.4;25.4
62981;PMS5003;49075;53.988;27.678;2022-09-30T18:13:52;41.8;36.8;24.8
62981;PMS5003;49075;53.988;27.678;2022-09-30T18:19:25;37;33.8;23.4
62981;PMS5003;49075;53.988;27.678;2022-09-30T18:23:48;85;76.2;49.4
62981;PMS5003;49075;53.988;27.678;2022-09-30T18:29:01;55.8;46.2;30.6
62981;PMS5003;49075;53.988;27.678;2022-09-30T18:33:39;41.3;35.8;24.5
62981;PMS5003;49075;53.988;27.678;2022-09-30T18:38:51;34.4;31.8;22.6
62981;PMS5003;49075;53.988;27.678;2022-09-30T18:44:27;40.8;35.8;24.6
62981;PMS5003;49075;53.988;27.678;2022-09-30T18:49:25;46;39.6;26
62981;PMS5003;49075;53.988;27.678;2022-09-30T18:53:58;40;35.2;23.2
62981;PMS5003;49075;53.988;27.678;2022-09-30T18:59:13;38.4;35;24
62981;PMS5003;49075;53.988;27.678;2022-09-30T19:03:53;48.4;40.6;28
62981;PMS5003;49075;53.988;27.678;2022-09-30T19:08:51;45.6;39.4;25.8
62981;PMS5003;49075;53.988;27.678;2022-09-30T19:14:25;49.8;42.3;27.8
62981;PMS5003;49075;53.988;27.678;2022-09-30T19:18:39;45.8;39;26.8
62981;PMS5003;49075;53.988;27.678;2022-09-30T19:23:47;54.4;44.8;29.8
62981;PMS5003;49075;53.988;27.678;2022-09-30T19:28:49;53;44.8;30.4
62981;PMS5003;49075;53.988;27.678;2022-09-30T19:34:27;49;40;26.8
62981;PMS5003;49075;53.988;27.678;2022-09-30T19:38:47;48.2;41;27.4
62981;PMS5003;49075;53.988;27.678;2022-09-30T19:43:48;49.6;41.2;27.2
62981;PMS5003;49075;53.988;27.678;2022-09-30T19:49:27;45.8;38.8;25.8
62981;PMS5003;49075;53.988;27.678;2022-09-30T19:53:53;52.8;43.6;29.4
62981;PMS5003;49075;53.988;27.678;2022-09-30T19:58:55;52.6;43.8;28.8
62981;PMS5003;49075;53.988;27.678;2022-09-30T20:03:47;53;44.4;28.6
62981;PMS5003;49075;53.988;27.678;2022-09-30T20:09:27;51.8;43;28.6
62981;PMS5003;49075;53.988;27.678;2022-09-30T20:14:27;47.3;40;26.8
62981;PMS5003;49075;53.988;27.678;2022-09-30T20:19:27;53;43.8;29
62981;PMS5003;49075;53.988;27.678;2022-09-30T20:24:27;43;37.2;26
62981;PMS5003;49075;53.988;27.678;2022-09-30T20:28:55;44.3;38;25
62981;PMS5003;49075;53.988;27.678;2022-09-30T20:33:54;44.3;38;25
62981;PMS5003;49075;53.988;27.678;2022-09-30T20:38:37;49.2;41.4;27.6
62981;PMS5003;49075;53.988;27.678;2022-09-30T20:43:51;49.4;41.2;27
62981;PMS5003;49075;53.988;27.678;2022-09-30T20:48:53;46.6;39.8;26
62981;PMS5003;49075;53.988;27.678;2022-09-30T20:53:39;48.6;41.4;26.8
62981;PMS5003;49075;53.988;27.678;2022-09-30T20:58:47;48.2;41.2;27.8
62981;PMS5003;49075;53.988;27.678;2022-09-30T21:03:47;48.6;41;27.8
62981;PMS5003;49075;53.988;27.678;2022-09-30T21:09:25;48.4;40.8;27
62981;PMS5003;49075;53.988;27.678;2022-09-30T21:14:25;53.2;45.2;30
62981;PMS5003;49075;53.988;27.678;2022-09-30T21:18:49;51.4;43.4;29.8
62981;PMS5003;49075;53.988;27.678;2022-09-30T21:23:51;48.8;41;28.4
62981;PMS5003;49075;53.988;27.678;2022-09-30T21:28:39;54;45.4;30.2
62981;PMS5003;49075;53.988;27.678;2022-09-30T21:33:53;54.3;44.8;30.3
62981;PMS5003;49075;53.988;27.678;2022-09-30T21:39:25;52.4;44.2;29.2
62981;PMS5003;49075;53.988;27.678;2022-09-30T21:44:27;43;39;24.5
62981;PMS5003;49075;53.988;27.678;2022-09-30T21:48:47;54.3;44.3;29
62981;PMS5003;49075;53.988;27.678;2022-09-30T21:53:51;50;41;26.5
62981;PMS5003;49075;53.988;27.678;2022-09-30T21:59:03;51.5;44.5;29
62981;PMS5003;49075;53.988;27.678;2022-09-30T22:04:27;47.4;40.4;27.6
62981;PMS5003;49075;53.988;27.678;2022-09-30T22:08:39;46.6;40.2;27
62981;PMS5003;49075;53.988;27.678;2022-09-30T22:13:50;48;41.4;27.8
62981;PMS5003;49075;53.988;27.678;2022-09-30T22:18:51;49.2;41.8;27.6
62981;PMS5003;49075;53.988;27.678;2022-09-30T22:23:53;50.8;42;28.8
62981;PMS5003;49075;53.988;27.678;2022-09-30T22:29:27;46.8;38.8;25.6
62981;PMS5003;49075;53.988;27.678;2022-09-30T22:34:27;43.2;37.2;24.8
62981;PMS5003;49075;53.988;27.678;2022-09-30T22:39:27;49;42;28.3
62981;PMS5003;49075;53.988;27.678;2022-09-30T22:43:57;47.8;39.4;26.8
62981;PMS5003;49075;53.988;27.678;2022-09-30T22:49:23;47;40.8;27.2
62981;PMS5003;49075;53.988;27.678;2022-09-30T22:53:45;52;44;29
62981;PMS5003;49075;53.988;27.678;2022-09-30T22:59:23;55;46;29
62981;PMS5003;49075;53.988;27.678;2022-09-30T23:03:37;44;37.5;25.3
62981;PMS5003;49075;53.988;27.678;2022-09-30T23:08:47;47.3;40.3;25.7
62981;PMS5003;49075;53.988;27.678;2022-09-30T23:14:20;49.3;41.7;26
62981;PMS5003;49075;53.988;27.678;2022-09-30T23:19:19;46.7;39.7;26.3
62981;PMS5003;49075;53.988;27.678;2022-09-30T23:23:51;49.3;40.7;27
62981;PMS5003;49075;53.988;27.678;2022-09-30T23:28:45;42.3;37.5;25.3
62981;PMS5003;49075;53.988;27.678;2022-09-30T23:34:21;40.8;36.3;23.5
62981;PMS5003;49075;53.988;27.678;2022-09-30T23:38:37;42.5;37.8;25.8
62981;PMS5003;49075;53.988;27.678;2022-09-30T23:43:51;43.2;37.6;25.2
62981;PMS5003;49075;53.988;27.678;2022-09-30T23:48:57;42.3;36.5;24.3
62981;PMS5003;49075;53.988;27.678;2022-09-30T23:53:49;45;39;25.8
62981;PMS5003;49075;53.988;27.678;2022-09-30T23:59:03;45;39.5;26.8
